Time;durP1;ratioP1;P1;durP2;ratioP2;P2;SDS_P1;SDS_P2;PMS_P1;PMS_P2;Temp;Humidity;BMP_temperature;BMP_pressure;BME280_temperature;BME280_humidity;BME280_pressure;Samples;Min_cycle;Max_cycle;Signal;HPM_P1;HPM_P2
2022/06/17 00:03:44;;;;;;;4.82;1.87;;;;;;;16.71;80.00;100601.69;18358835;32;20771;-65
2022/06/17 00:13:47;;;;;;;3.85;1.85;;;;;;;17.16;78.28;100597.06;18359322;32;20097;-65
2022/06/17 00:23:52;;;;;;;3.42;1.65;;;;;;;16.95;79.17;100609.03;18357206;32;20101;-66
2022/06/17 00:33:55;;;;;;;3.42;1.80;;;;;;;16.46;81.61;100622.50;18357376;32;20127;-65
2022/06/17 00:44:01;;;;;;;3.60;1.90;;;;;;;16.93;78.79;100632.78;18357038;32;20092;-66
2022/06/17 00:54:22;;;;;;;4.22;1.70;;;;;;;17.23;77.15;100637.34;18356515;32;20093;-66
2022/06/17 01:04:28;;;;;;;3.70;1.75;;;;;;;17.19;75.98;100623.37;18356163;32;20085;-65
2022/06/17 01:14:31;;;;;;;4.35;1.77;;;;;;;16.36;80.19;100645.53;18356655;32;20128;-65
2022/06/17 01:24:36;;;;;;;3.35;1.75;;;;;;;16.45;80.34;100641.81;18354680;32;20465;-66
2022/06/17 01:34:39;;;;;;;6.03;1.75;;;;;;;15.94;81.07;100646.44;18355114;32;20493;-66
2022/06/17 01:44:44;;;;;;;3.10;1.67;;;;;;;16.00;80.37;100640.16;18363813;32;20434;-65
2022/06/17 01:54:51;;;;;;;2.85;1.65;;;;;;;16.18;79.60;100646.81;18363441;32;20094;-66
2022/06/17 02:04:58;;;;;;;4.43;1.83;;;;;;;15.64;80.65;100670.66;18362812;32;20093;-66
2022/06/17 02:15:01;;;;;;;3.55;1.85;;;;;;;16.05;79.01;100670.75;18363807;32;20094;-66
2022/06/17 02:25:09;;;;;;;4.82;2.03;;;;;;;16.36;76.16;100679.78;18415953;31;20453;-66
2022/06/17 02:35:27;;;;;;;5.35;2.20;;;;;;;15.56;80.22;100677.84;18361936;32;20085;-65
2022/06/17 02:45:35;;;;;;;3.87;1.73;;;;;;;15.35;79.08;100690.47;18361461;32;20089;-65
2022/06/17 02:55:40;;;;;;;6.68;2.28;;;;;;;15.43;79.57;100695.63;18360867;32;20097;-65
2022/06/17 03:05:46;;;;;;;7.03;2.83;;;;;;;15.82;78.41;100692.25;18361126;32;20132;-65
2022/06/17 03:15:52;;;;;;;5.97;2.40;;;;;;;15.31;80.57;100701.06;18360789;32;20643;-65
2022/06/17 03:26:01;;;;;;;5.30;2.25;;;;;;;15.52;79.89;100676.16;18360054;32;20093;-65
2022/06/17 03:36:11;;;;;;;4.80;2.50;;;;;;;16.03;79.25;100688.37;18359774;32;20716;-65
2022/06/17 03:46:15;;;;;;;5.70;2.40;;;;;;;15.69;82.04;100696.88;18411678;31;20123;-66
2022/06/17 03:56:22;;;;;;;6.25;2.22;;;;;;;16.16;81.15;100715.31;18359788;32;20103;-65
2022/06/17 04:06:29;;;;;;;5.95;2.28;;;;;;;16.77;81.03;100719.28;18364987;31;20373;-66
2022/06/17 04:16:37;;;;;;;5.95;2.20;;;;;;;17.70;79.00;100724.97;18374316;31;20162;-66
2022/06/17 04:26:43;;;;;;;4.62;2.50;;;;;;;18.70;74.83;100728.31;18357883;32;20112;-66
2022/06/17 04:36:48;;;;;;;3.90;1.75;;;;;;;20.08;70.52;100725.50;18357075;32;20433;-66
2022/06/17 04:46:58;;;;;;;7.80;2.30;;;;;;;20.59;68.70;100729.81;18356852;32;20369;-66
2022/06/17 04:57:04;;;;;;;3.17;1.73;;;;;;;20.34;72.49;100736.03;18377288;31;20152;-66
2022/06/17 05:07:09;;;;;;;2.45;1.40;;;;;;;20.86;67.38;100730.53;18359026;32;20111;-66
2022/06/17 05:17:12;;;;;;;1.40;1.10;;;;;;;22.92;62.38;100732.22;18354577;32;20101;-67
2022/06/17 05:27:17;;;;;;;2.53;1.37;;;;;;;24.52;57.01;100730.19;18354576;32;20165;-67
2022/06/17 05:37:21;;;;;;;4.78;1.62;;;;;;;22.83;60.63;100739.69;18355644;32;20089;-66
2022/06/17 05:47:25;;;;;;;3.25;1.70;;;;;;;22.81;61.95;100744.25;18354212;32;20085;-66
2022/06/17 05:57:29;;;;;;;3.20;1.65;;;;;;;22.00;64.49;100745.25;18381515;32;20428;-66
2022/06/17 06:07:33;;;;;;;4.47;1.55;;;;;;;21.41;69.12;100773.47;18417328;32;20115;-66
2022/06/17 06:17:37;;;;;;;5.20;2.10;;;;;;;21.52;68.10;100783.63;18413972;32;20137;-65
2022/06/17 06:27:41;;;;;;;5.90;1.67;;;;;;;21.42;66.88;100781.34;18423678;32;20099;-66
2022/06/17 06:37:45;;;;;;;5.57;2.03;;;;;;;21.96;65.87;100786.19;18426060;32;20676;-66
2022/06/17 06:47:51;;;;;;;4.18;1.65;;;;;;;23.28;64.36;100795.28;18422941;32;20093;-67
2022/06/17 06:57:56;;;;;;;2.55;1.30;;;;;;;24.90;55.36;100787.75;18472118;31;20123;-66
2022/06/17 07:08:01;;;;;;;3.12;1.60;;;;;;;24.76;50.59;100776.94;18431036;31;20105;-66
2022/06/17 07:18:10;;;;;;;1.48;1.10;;;;;;;24.13;50.56;100789.22;18476277;31;20184;-67
2022/06/17 07:28:16;;;;;;;2.10;1.27;;;;;;;24.87;47.34;100797.75;18423755;32;20148;-66
2022/06/17 07:48:43;;;;;;;1.98;1.50;;;;;;;26.81;43.90;100801.38;18424817;31;20355;-66
2022/06/17 07:58:46;;;;;;;1.98;1.35;;;;;;;26.18;44.03;100805.25;18358608;32;20132;-66
2022/06/17 08:08:51;;;;;;;4.55;1.90;;;;;;;26.50;42.39;100808.69;18405802;32;20088;-66
2022/06/17 08:18:54;;;;;;;4.47;1.73;;;;;;;26.26;42.56;100801.22;18422552;32;20123;-65
2022/06/17 08:28:59;;;;;;;1.75;1.10;;;;;;;26.70;40.19;100808.28;18400784;32;20098;-66
2022/06/17 08:39:06;;;;;;;2.67;1.45;;;;;;;26.67;40.79;100808.50;18376941;32;20093;-66
2022/06/17 08:49:23;;;;;;;2.22;1.50;;;;;;;26.76;41.82;100812.38;18364390;31;20097;-66
2022/06/17 08:59:39;;;;;;;5.78;1.70;;;;;;;26.96;40.24;100816.50;18372390;32;20085;-66
2022/06/17 09:10:09;;;;;;;5.97;1.50;;;;;;;27.32;40.84;100821.31;18411576;32;20365;-66
2022/06/17 09:20:15;;;;;;;3.40;1.60;;;;;;;27.96;39.93;100823.31;18365411;32;20421;-66
2022/06/17 09:30:21;;;;;;;3.83;2.03;;;;;;;27.88;41.24;100823.84;18355221;32;20082;-66
2022/06/17 09:40:28;;;;;;;2.67;1.58;;;;;;;28.16;39.56;100829.97;18408303;31;20119;-66
2022/06/17 09:50:38;;;;;;;3.95;1.60;;;;;;;28.88;37.18;100846.47;18406970;31;20339;-66
2022/06/17 10:00:45;;;;;;;4.53;1.80;;;;;;;27.50;40.34;100860.31;18359004;32;20366;-66
2022/06/17 10:10:54;;;;;;;4.82;1.90;;;;;;;28.38;39.35;100864.25;18362206;32;20104;-66
2022/06/17 10:21:03;;;;;;;2.50;1.57;;;;;;;28.51;38.56;100879.50;18362947;32;20141;-66
2022/06/17 10:31:17;;;;;;;4.13;2.00;;;;;;;29.23;39.21;100872.56;18414871;31;20126;-67
2022/06/17 10:41:21;;;;;;;3.40;1.77;;;;;;;29.25;35.40;100870.63;18361724;31;20453;-66
2022/06/17 10:51:25;;;;;;;4.62;2.10;;;;;;;28.58;36.38;100872.72;18360793;32;20093;-66
2022/06/17 11:01:52;;;;;;;4.25;2.20;;;;;;;27.62;39.27;100873.91;18360710;32;20112;-66
2022/06/17 11:12:04;;;;;;;4.37;2.17;;;;;;;27.78;42.49;100874.56;18358922;31;20101;-67
2022/06/17 11:22:18;;;;;;;5.03;2.42;;;;;;;28.32;43.31;100880.78;18357994;31;20134;-67
2022/06/17 11:32:34;;;;;;;3.92;2.05;;;;;;;28.51;38.45;100872.31;18359811;32;20104;-67
2022/06/17 11:42:46;;;;;;;4.25;2.00;;;;;;;29.45;40.47;100866.50;18366000;32;20163;-66
2022/06/17 11:52:51;;;;;;;3.70;1.60;;;;;;;29.47;35.16;100856.47;18399731;32;20101;-65
2022/06/17 12:03:00;;;;;;;4.57;2.28;;;;;;;26.84;39.38;100895.78;18457029;31;20105;-66
2022/06/17 12:13:16;;;;;;;4.78;2.40;;;;;;;24.90;55.57;100864.31;18405682;32;20089;-65
2022/06/17 12:23:26;;;;;;;3.43;1.80;;;;;;;24.50;57.13;100854.84;18388399;31;20137;-66
2022/06/17 12:33:35;;;;;;;4.20;1.80;;;;;;;25.59;46.59;100835.47;18365065;31;20477;-66
2022/06/17 12:43:44;;;;;;;4.60;2.57;;;;;;;27.60;38.29;100822.19;18410539;32;20112;-67
2022/06/17 12:53:57;;;;;;;5.95;1.80;;;;;;;27.93;39.22;100818.16;18409005;31;20808;-67
2022/06/17 13:04:15;;;;;;;2.53;1.30;;;;;;;28.58;33.11;100826.19;18356169;32;20115;-67
2022/06/17 13:14:26;;;;;;;3.62;1.75;;;;;;;28.75;31.35;100819.63;18355305;32;20169;-68
2022/06/17 13:24:35;;;;;;;4.40;1.80;;;;;;;29.07;32.57;100798.47;18355400;32;20532;-67
2022/06/17 13:34:42;;;;;;;4.73;1.90;;;;;;;28.77;31.44;100812.31;18353038;32;20545;-66
2022/06/17 13:44:55;;;;;;;3.95;1.80;;;;;;;29.39;31.40;100806.91;18354897;32;20093;-67
2022/06/17 13:55:05;;;;;;;2.87;1.60;;;;;;;29.06;30.67;100806.66;18406438;31;20129;-68
2022/06/17 14:05:28;;;;;;;3.15;1.73;;;;;;;28.82;32.43;100798.53;18406354;31;20148;-67
2022/06/17 14:15:36;;;;;;;3.62;1.80;;;;;;;28.78;32.41;100787.16;18352452;32;20089;-67
2022/06/17 14:25:49;;;;;;;3.47;1.73;;;;;;;29.22;31.66;100784.84;18351374;32;20154;-66
2022/06/17 14:35:54;;;;;;;2.83;1.52;;;;;;;28.74;31.00;100794.59;18351045;32;20425;-68
2022/06/17 14:45:58;;;;;;;4.15;1.50;;;;;;;28.77;31.20;100790.81;18438423;31;20112;-69
2022/06/17 14:56:24;;;;;;;2.85;1.52;;;;;;;28.35;31.53;100797.34;18422545;31;20101;-67
2022/06/17 15:06:30;;;;;;;4.60;1.48;;;;;;;27.85;32.09;100791.88;18424143;31;20432;-66
2022/06/17 15:16:38;;;;;;;1.98;1.08;;;;;;;28.14;31.96;100793.47;18422311;32;20153;-67
2022/06/17 15:26:53;;;;;;;2.60;1.00;;;;;;;27.67;31.11;100777.91;18424129;32;20109;-67
2022/06/17 15:36:59;;;;;;;1.87;1.10;;;;;;;27.60;31.97;100790.00;18423276;32;20095;-66
2022/06/17 15:47:15;;;;;;;2.35;1.02;;;;;;;27.08;31.62;100788.03;18423252;32;20073;-66
2022/06/17 15:57:27;;;;;;;2.12;1.10;;;;;;;27.19;30.96;100795.34;18422333;32;20085;-67
2022/06/17 16:07:30;;;;;;;;;;;;;;;26.38;32.18;100788.91;18446545;31;104512;-66
2022/06/17 16:17:37;;;;;;;1.87;0.90;;;;;;;26.72;31.79;100792.97;18422720;32;20390;-66
2022/06/17 16:27:49;;;;;;;1.48;0.95;;;;;;;26.61;31.91;100792.81;18421898;32;20111;-66
2022/06/17 16:37:54;;;;;;;3.00;0.93;;;;;;;26.62;31.62;100793.69;18420873;32;20113;-66
2022/06/17 16:48:10;;;;;;;0.88;0.80;;;;;;;26.27;31.71;100806.50;18418705;32;20496;-66
2022/06/17 16:58:14;;;;;;;2.53;0.90;;;;;;;26.63;31.35;100801.59;18474114;31;20513;-67
2022/06/17 17:08:18;;;;;;;1.25;0.80;;;;;;;26.27;31.65;100811.84;18418205;32;20481;-66
2022/06/17 17:18:28;;;;;;;1.70;0.77;;;;;;;26.19;31.61;100819.47;18420265;32;20097;-65
2022/06/17 17:28:32;;;;;;;1.92;0.90;;;;;;;25.71;32.65;100833.91;18418851;32;20365;-66
2022/06/17 17:38:36;;;;;;;1.98;0.80;;;;;;;25.77;33.27;100849.59;18471709;31;20085;-66
2022/06/17 17:48:40;;;;;;;2.05;1.00;;;;;;;25.49;32.49;100858.31;18405851;32;20142;-65
2022/06/17 17:58:45;;;;;;;1.10;0.80;;;;;;;25.42;31.48;100857.81;18354628;32;20093;-66
2022/06/17 18:08:50;;;;;;;2.08;0.90;;;;;;;25.20;31.31;100875.09;18351646;32;20459;-66
2022/06/17 18:18:55;;;;;;;2.92;1.00;;;;;;;24.91;31.73;100868.69;18355174;31;20121;-66
2022/06/17 18:29:00;;;;;;;1.50;0.77;;;;;;;24.69;31.75;100874.31;18362121;32;20419;-66
2022/06/17 18:39:04;;;;;;;1.00;0.70;;;;;;;24.30;31.78;100890.56;18361853;32;20098;-66
2022/06/17 18:49:15;;;;;;;1.08;0.80;;;;;;;24.29;31.65;100890.66;18361875;32;20116;-66
2022/06/17 18:59:20;;;;;;;1.25;0.70;;;;;;;24.01;32.56;100902.72;18360644;32;20100;-66
2022/06/17 19:19:46;;;;;;;1.60;0.93;;;;;;;23.15;34.38;100922.78;18413346;31;20115;-66
2022/06/17 19:29:49;;;;;;;1.37;0.90;;;;;;;23.18;34.96;100951.06;18359411;32;20093;-66
2022/06/17 19:39:54;;;;;;;1.67;0.90;;;;;;;23.02;35.01;100958.91;18359691;32;20160;-66
2022/06/17 19:49:59;;;;;;;0.70;0.70;;;;;;;23.09;34.99;100985.19;18360650;32;20153;-66
2022/06/17 20:00:04;;;;;;;2.60;0.90;;;;;;;22.84;35.63;100998.75;18358781;32;20123;-66
2022/06/17 20:10:08;;;;;;;0.62;0.62;;;;;;;22.58;36.02;101009.59;18355340;32;20360;-65
2022/06/17 20:20:14;;;;;;;1.85;0.80;;;;;;;22.22;36.15;101006.66;18356753;32;20093;-66
2022/06/17 20:30:21;;;;;;;1.23;0.90;;;;;;;22.10;36.91;101018.66;18357183;32;20437;-66
2022/06/17 20:40:28;;;;;;;3.97;0.73;;;;;;;22.17;37.08;101033.44;18355638;32;20117;-67
2022/06/17 20:50:32;;;;;;;1.85;1.00;;;;;;;22.02;36.62;101070.34;18409209;31;20115;-66
2022/06/17 21:00:39;;;;;;;1.27;0.95;;;;;;;22.27;37.86;101081.78;18355409;32;20097;-67
2022/06/17 21:10:44;;;;;;;1.15;0.82;;;;;;;22.18;39.04;101091.88;18355507;32;20456;-66
2022/06/17 21:20:51;;;;;;;3.65;1.10;;;;;;;21.71;40.85;101114.03;18408637;31;20103;-65
2022/06/17 21:30:55;;;;;;;2.65;1.10;;;;;;;21.10;43.55;101125.94;18355401;32;20371;-65
2022/06/17 21:41:01;;;;;;;2.58;1.27;;;;;;;20.65;45.05;101125.63;18354822;32;20133;-66
2022/06/17 21:51:07;;;;;;;1.58;1.10;;;;;;;20.26;46.51;101123.34;18354532;32;20105;-67
2022/06/17 22:01:12;;;;;;;1.83;1.20;;;;;;;19.73;48.13;101131.97;18364710;32;20115;-67
2022/06/17 22:21:36;;;;;;;1.50;1.25;;;;;;;18.95;53.89;101132.25;18414117;31;20353;-66
2022/06/17 22:31:40;;;;;;;2.47;1.50;;;;;;;18.65;55.49;101145.34;18362535;32;20093;-65
2022/06/17 22:41:44;;;;;;;3.33;1.52;;;;;;;18.50;55.29;101148.38;18362046;32;20460;-66
2022/06/17 22:51:47;;;;;;;2.37;1.52;;;;;;;17.96;57.31;101148.59;18362132;32;20096;-66
2022/06/17 23:01:53;;;;;;;2.45;1.55;;;;;;;17.87;58.13;101154.94;18361779;32;20143;-66
2022/06/17 23:11:57;;;;;;;3.45;1.50;;;;;;;16.96;61.06;101146.94;18362228;32;20163;-65
2022/06/17 23:22:01;;;;;;;3.80;1.55;;;;;;;17.23;60.40;101159.72;18360491;32;20444;-66
2022/06/17 23:32:05;;;;;;;2.12;1.35;;;;;;;16.54;62.25;101167.81;18360367;32;20101;-66
2022/06/17 23:42:12;;;;;;;2.25;1.55;;;;;;;17.08;59.60;101164.34;18359970;32;20093;-66
2022/06/17 23:52:28;;;;;;;3.10;1.55;;;;;;;16.54;62.02;101163.41;18360818;32;20126;-66
